OEKJ

Al Kharj AB

Al Kharj, Saudi Arabia
TAF OEKJ 172300Z 1800/1906 36012G22KT 7000 NSC TEMPO 1800/1815 2500 DU BLDU
Issued Valid From Valid To
Jun-17 @ 23:00 UTC
(12 hours ago)
Jun-18 @ 00:00 UTC
(11 hours ago)
Jun-19 @ 06:00 UTC
(in 19 hours)
Jun-18 @ 00:00 to Jun-19 @ 06:00
TAF OEKJ 172300Z 1800/1906 36012G22KT 7000 NSC
Wind Visibility Clouds
360° at 12 knots
 Gusting to 22 knots
7,001 meters
  • No significant clouds
Temporary Jun-18 @ 00:00 to Jun-18 @ 15:00
TEMPO 1800/1815 2500 DU BLDU
Visibility Conditions
2,494 meters
  • Dust
  • Blowing
  • Dust
TAF OEKJ 172300Z 1800/1906 36012G22KT 7000 NSC TEMPO 1800/1815 2500 DU BLDU
Issued Jun-17 @ 23:00 UTC
(12 hours ago)
Valid From Jun-18 @ 00:00 UTC
(11 hours ago)
Valid To Jun-19 @ 06:00 UTC
(in 19 hours)
Jun-18 @ 00:00 - Jun-19 @ 06:00
Wind Visibility
360° at 12 knots
 Gusting to 22 knots
7,001 meters
Clouds
  • No significant clouds
Temporary Jun-18 @ 00:00 - Jun-18 @ 15:00
Conditions
  • Dust
  • Blowing
  • Dust